createdAt,value
2023-04-22T07:09:29.483Z,37.71
2023-04-22T07:11:59.039Z,37.63
2023-04-22T07:14:30.843Z,38.11
2023-04-22T07:16:59.656Z,39.44
2023-04-22T07:19:27.734Z,39.23
2023-04-22T07:21:56.013Z,41.59
2023-04-22T07:24:24.286Z,42.48
2023-04-22T07:26:52.561Z,40.21
2023-04-22T07:29:20.941Z,40.99
2023-04-22T07:31:49.080Z,40.66
2023-04-22T07:34:18.437Z,39.82
2023-04-22T07:36:46.584Z,39.33
2023-04-22T07:39:14.651Z,39.68
2023-04-22T07:41:42.744Z,39.65
2023-04-22T07:44:13.089Z,39.84
2023-04-22T07:46:41.331Z,41.83
2023-04-22T07:49:09.600Z,42.93
2023-04-22T07:51:37.983Z,42.85
2023-04-22T07:54:06.363Z,42.57
2023-04-22T07:56:35.170Z,42.05
2023-04-22T07:59:03.949Z,41.45
2023-04-22T08:01:32.219Z,40.98
2023-04-22T08:04:00.482Z,39.82
2023-04-22T08:06:28.908Z,39.02
2023-04-22T08:08:56.991Z,38.83
2023-04-22T08:11:25.138Z,38.84
2023-04-22T08:13:53.161Z,39.07
2023-04-22T08:16:21.322Z,40.11
2023-04-22T08:18:49.639Z,40.52
2023-04-22T08:21:17.831Z,40.61
2023-04-22T08:23:46.503Z,40.32
2023-04-22T08:26:16.334Z,40.42
2023-04-22T08:28:44.500Z,40.94
2023-04-22T08:31:13.182Z,40.94
2023-04-22T08:33:41.862Z,40.91
2023-04-22T08:36:11.286Z,42.07
2023-04-22T08:38:39.636Z,43.15
2023-04-22T08:41:07.679Z,42.54
2023-04-22T08:43:35.882Z,41.63
2023-04-22T08:46:04.106Z,41.75
2023-04-22T08:48:33.039Z,42.79
2023-04-22T08:51:01.233Z,42.85
2023-04-22T08:53:29.619Z,43.17
2023-04-22T08:55:57.884Z,42.52
2023-04-22T08:58:26.188Z,43.29
2023-04-22T09:00:54.849Z,42.72
2023-04-22T09:03:23.398Z,41.81
2023-04-22T09:05:52.638Z,42.19
2023-04-22T09:08:21.099Z,43.01
2023-04-22T09:10:49.159Z,43.86
2023-04-22T09:13:17.548Z,45.10
2023-04-22T09:15:46.401Z,45.16
2023-04-22T09:18:17.583Z,43.40
2023-04-22T09:20:47.394Z,42.25
2023-04-22T09:23:16.188Z,41.86
2023-04-22T09:25:45.005Z,42.70
2023-04-22T09:28:17.163Z,42.88
2023-04-22T09:30:46.234Z,42.31
2023-04-22T09:33:14.272Z,42.82
2023-04-22T09:35:43.297Z,42.35
2023-04-22T09:38:12.299Z,41.81
2023-04-22T09:40:44.412Z,42.39
2023-04-22T09:43:12.883Z,43.21
2023-04-22T09:45:44.053Z,43.38
2023-04-22T09:48:13.829Z,44.38
2023-04-22T09:50:49.749Z,45.45
2023-04-22T09:53:19.294Z,45.37
2023-04-22T09:55:49.691Z,45.87
2023-04-22T09:58:19.084Z,46.28
2023-04-22T10:00:51.889Z,46.05
2023-04-22T10:03:20.511Z,46.41
2023-04-22T10:05:48.793Z,44.79
2023-04-22T10:08:17.229Z,44.71
2023-04-22T10:10:45.916Z,45.62
2023-04-22T10:13:13.931Z,46.66
2023-04-22T10:15:52.715Z,46.80
2023-04-22T10:18:25.890Z,47.20
2023-04-22T10:20:54.548Z,46.44
2023-04-22T10:23:23.165Z,46.26
2023-04-22T10:25:54.660Z,46.04
2023-04-22T10:28:24.197Z,45.49
2023-04-22T10:30:52.384Z,46.20
2023-04-22T10:33:34.904Z,44.62
2023-04-22T10:36:14.950Z,43.15
2023-04-22T10:38:55.303Z,41.98
2023-04-22T10:41:30.539Z,41.64
2023-04-22T10:44:00.346Z,42.65
2023-04-22T10:46:38.045Z,43.54
2023-04-22T10:49:13.788Z,41.82
2023-04-22T10:51:46.569Z,42.40
2023-04-22T10:54:32.096Z,43.16
2023-04-22T10:57:11.494Z,43.93
2023-04-22T10:59:45.915Z,43.86
2023-04-22T11:02:14.920Z,43.09
2023-04-22T11:04:43.305Z,42.94
2023-04-22T11:07:22.769Z,43.42
2023-04-22T11:09:52.366Z,41.33
2023-04-22T11:12:35.897Z,41.39
2023-04-22T11:15:07.158Z,42.41
2023-04-22T11:17:36.328Z,42.61
2023-04-22T11:20:05.356Z,43.51
2023-04-22T11:22:44.239Z,43.15
2023-04-22T11:25:12.354Z,42.86
2023-04-22T11:27:43.425Z,42.12
2023-04-22T11:30:13.678Z,41.56
2023-04-22T11:32:47.648Z,41.94
2023-04-22T11:35:19.446Z,41.06
2023-04-22T11:37:51.861Z,40.46
2023-04-22T11:40:30.959Z,41.05
2023-04-22T11:43:02.370Z,41.57
2023-04-22T11:45:31.323Z,41.92
2023-04-22T11:48:01.929Z,41.47
2023-04-22T11:50:33.006Z,40.12
2023-04-22T11:53:02.676Z,40.66
2023-04-22T11:55:35.073Z,40.76
2023-04-22T11:58:26.696Z,40.33
2023-04-22T12:00:56.401Z,41.55
2023-04-22T12:03:26.461Z,41.56
2023-04-22T12:05:58.847Z,41.89
2023-04-22T12:08:31.606Z,40.75
2023-04-22T12:11:05.899Z,38.39
2023-04-22T12:13:38.470Z,38.23
2023-04-22T12:16:12.660Z,38.21
2023-04-22T12:18:43.391Z,37.81
2023-04-22T12:21:12.794Z,37.89
2023-04-22T12:24:05.149Z,37.49
2023-04-22T12:26:34.119Z,37.29
2023-04-22T12:29:02.283Z,38.41
2023-04-22T12:31:30.612Z,38.33
2023-04-22T12:34:00.473Z,36.79
2023-04-22T12:36:32.553Z,36.54
2023-04-22T12:39:00.933Z,37.34
2023-04-22T12:41:29.060Z,37.31
2023-04-22T12:43:57.173Z,36.32
2023-04-22T12:46:25.465Z,36.17
2023-04-22T12:48:53.717Z,35.94
2023-04-22T12:51:22.614Z,36.36
2023-04-22T12:53:50.786Z,36.22
2023-04-22T12:56:18.900Z,34.99
2023-04-22T12:58:47.844Z,35.66
2023-04-22T13:01:15.977Z,36.32
2023-04-22T13:03:44.513Z,36.11
2023-04-22T13:06:12.881Z,36.43
2023-04-22T13:08:41.072Z,36.17
2023-04-22T13:11:09.345Z,35.75
2023-04-22T13:13:37.428Z,36.09
2023-04-22T13:16:06.006Z,35.62
2023-04-22T13:18:34.262Z,35.15
2023-04-22T13:21:02.395Z,35.33
2023-04-22T13:23:31.115Z,35.47
2023-04-22T13:25:59.289Z,36.39
2023-04-22T13:28:28.107Z,37.63
2023-04-22T13:30:56.353Z,38.74
2023-04-22T13:33:24.617Z,39.67
2023-04-22T13:35:52.766Z,40.07
2023-04-22T13:38:21.289Z,41.02
2023-04-22T13:40:49.387Z,41.76
2023-04-22T13:43:18.129Z,42.18
2023-04-22T13:45:48.338Z,41.82
2023-04-22T13:48:16.498Z,42.58
2023-04-22T13:50:44.805Z,42.10
2023-04-22T13:53:13.974Z,42.07
2023-04-22T13:55:43.416Z,43.45
2023-04-22T13:58:11.690Z,43.22
2023-04-22T14:00:39.869Z,43.70
2023-04-22T14:03:08.308Z,44.17
2023-04-22T14:05:37.016Z,43.72
2023-04-22T14:08:05.151Z,42.74
2023-04-22T14:10:33.326Z,41.85
2023-04-22T14:13:01.662Z,41.72
2023-04-22T14:15:29.967Z,42.09
2023-04-22T14:17:58.037Z,41.23
2023-04-22T14:20:26.255Z,41.11
2023-04-22T14:22:54.367Z,41.41
2023-04-22T14:25:22.442Z,41.63
2023-04-22T14:27:50.911Z,41.44
2023-04-22T14:30:20.425Z,41.17
2023-04-22T14:32:49.469Z,40.32
2023-04-22T14:35:18.212Z,40.00
2023-04-22T14:37:46.671Z,40.12
2023-04-22T14:40:15.250Z,40.59
2023-04-22T14:42:43.914Z,39.83
2023-04-22T14:45:14.729Z,39.19
2023-04-22T14:47:43.673Z,39.30
2023-04-22T14:50:11.853Z,39.28
2023-04-22T14:52:41.220Z,39.30
2023-04-22T14:55:21.940Z,38.93
2023-04-22T14:57:56.777Z,38.64
2023-04-22T15:00:26.143Z,39.08
2023-04-22T15:02:54.858Z,38.94
2023-04-22T15:05:23.732Z,38.78
2023-04-22T15:07:51.886Z,38.54
2023-04-22T15:10:20.243Z,39.31
2023-04-22T15:12:48.372Z,39.45
2023-04-22T15:15:18.158Z,39.82
2023-04-22T15:17:46.727Z,39.88
2023-04-22T15:20:15.566Z,40.01
2023-04-22T15:22:43.865Z,40.23
2023-04-22T15:25:11.970Z,40.86
2023-04-22T15:27:40.265Z,40.62
2023-04-22T15:30:08.932Z,40.55
2023-04-22T15:32:39.376Z,41.02
2023-04-22T15:35:08.222Z,41.06
2023-04-22T15:37:37.169Z,41.03
2023-04-22T15:40:07.055Z,41.21
2023-04-22T15:42:35.285Z,41.38
2023-04-22T15:45:04.154Z,41.75
2023-04-22T15:47:33.368Z,41.66
2023-04-22T15:50:09.052Z,42.05
2023-04-22T15:52:38.084Z,42.21
2023-04-22T15:55:07.871Z,42.36
2023-04-22T15:57:37.072Z,42.58
2023-04-22T16:00:12.948Z,42.50
2023-04-22T16:02:45.091Z,43.00
2023-04-22T16:05:14.809Z,42.99
2023-04-22T16:07:43.493Z,43.22
2023-04-22T16:10:12.194Z,43.30
2023-04-22T16:12:42.094Z,43.04
2023-04-22T16:15:10.718Z,43.40
2023-04-22T16:17:38.790Z,43.39
2023-04-22T16:20:08.672Z,43.43
2023-04-22T16:22:37.297Z,43.81
2023-04-22T16:25:07.124Z,44.06
2023-04-22T16:27:35.757Z,44.37
2023-04-22T16:30:04.459Z,44.78
2023-04-22T16:32:33.023Z,44.71
2023-04-22T16:35:01.590Z,44.77
2023-04-22T16:37:31.115Z,44.95
2023-04-22T16:39:59.336Z,45.08
2023-04-22T16:42:27.870Z,44.96
2023-04-22T16:44:56.149Z,45.13
2023-04-22T16:47:24.630Z,45.43
2023-04-22T16:49:52.796Z,45.14
2023-04-22T16:52:20.911Z,45.37
2023-04-22T16:54:51.689Z,45.60
2023-04-22T16:57:20.069Z,45.66
2023-04-22T16:59:48.239Z,46.02
2023-04-22T17:02:16.356Z,46.40
2023-04-22T17:04:44.586Z,45.90
2023-04-22T17:07:12.809Z,46.22
2023-04-22T17:09:41.582Z,46.09
2023-04-22T17:12:10.141Z,46.35
2023-04-22T17:14:38.619Z,46.61
2023-04-22T17:17:06.894Z,46.60
2023-04-22T17:19:36.607Z,46.93
2023-04-22T17:22:04.876Z,47.26
2023-04-22T17:24:33.348Z,47.52
2023-04-22T17:27:01.946Z,47.77
2023-04-22T17:29:30.241Z,47.84
2023-04-22T17:31:58.298Z,47.86
2023-04-22T17:34:27.036Z,47.69
2023-04-22T17:36:55.251Z,47.97
2023-04-22T17:39:23.398Z,48.28
2023-04-22T17:41:51.508Z,48.30
2023-04-22T17:44:19.695Z,48.26
2023-04-22T17:46:48.025Z,48.04
2023-04-22T17:49:16.139Z,48.57
2023-04-22T17:51:44.172Z,48.84
2023-04-22T17:54:12.496Z,48.98
2023-04-22T17:56:41.054Z,48.96
2023-04-22T17:59:11.489Z,48.96
2023-04-22T18:01:39.653Z,49.08
2023-04-22T18:04:08.085Z,49.29
2023-04-22T18:06:37.129Z,49.24
2023-04-22T18:09:05.913Z,49.41
2023-04-22T18:11:34.537Z,49.50
2023-04-22T18:14:02.719Z,49.50
2023-04-22T18:16:31.224Z,49.38
2023-04-22T18:19:02.356Z,49.59
2023-04-22T18:21:31.592Z,49.52
2023-04-22T18:24:00.004Z,49.70
2023-04-22T18:26:28.570Z,49.96
2023-04-22T18:28:56.731Z,50.00
2023-04-22T18:31:24.888Z,50.12
2023-04-22T18:33:53.177Z,50.34
2023-04-22T18:36:21.550Z,50.36
2023-04-22T18:38:49.730Z,50.52
2023-04-22T18:41:18.206Z,50.89
2023-04-22T18:43:48.472Z,50.90
2023-04-22T18:46:16.630Z,51.16
2023-04-22T18:48:44.878Z,51.33
2023-04-22T18:51:13.676Z,51.39
2023-04-22T18:53:41.641Z,51.68
2023-04-22T18:56:09.919Z,51.62
2023-04-22T18:58:38.197Z,51.67
2023-04-22T19:01:07.345Z,51.87
2023-04-22T19:03:36.086Z,52.06
2023-04-22T19:06:05.138Z,52.34
2023-04-22T19:08:33.892Z,52.60
2023-04-22T19:11:02.040Z,52.43
2023-04-22T19:13:30.510Z,52.50
2023-04-22T19:15:58.901Z,52.81
2023-04-22T19:18:27.189Z,52.89
2023-04-22T19:20:55.471Z,53.00
2023-04-22T19:23:23.810Z,52.53
2023-04-22T19:25:52.008Z,52.37
2023-04-22T19:28:20.259Z,52.40
2023-04-22T19:30:48.550Z,52.94
2023-04-22T19:33:16.934Z,53.36
2023-04-22T19:35:45.758Z,53.74
2023-04-22T19:38:19.083Z,53.93
2023-04-22T19:40:47.692Z,53.76
2023-04-22T19:43:17.161Z,53.70
2023-04-22T19:45:46.386Z,53.86
2023-04-22T19:48:15.077Z,53.88
2023-04-22T19:50:43.344Z,54.13
2023-04-22T19:53:12.039Z,54.06
2023-04-22T19:55:40.621Z,54.08
2023-04-22T19:58:08.669Z,54.35
2023-04-22T20:00:37.391Z,54.63
2023-04-22T20:03:07.190Z,54.62
2023-04-22T20:05:37.249Z,54.63
2023-04-22T20:08:05.406Z,54.59
2023-04-22T20:10:33.950Z,54.26
2023-04-22T20:13:04.078Z,54.08
2023-04-22T20:15:34.313Z,54.01
2023-04-22T20:18:02.958Z,54.01
2023-04-22T20:20:31.299Z,53.90
2023-04-22T20:23:01.490Z,53.92
2023-04-22T20:25:30.966Z,53.58
2023-04-22T20:27:59.168Z,53.35
2023-04-22T20:30:27.555Z,53.19
2023-04-22T20:32:56.356Z,52.92
2023-04-22T20:35:25.741Z,52.80
2023-04-22T20:37:54.119Z,52.74
2023-04-22T20:40:24.618Z,52.59
2023-04-22T20:42:53.128Z,52.30
2023-04-22T20:45:21.132Z,52.16
2023-04-22T20:47:49.370Z,52.37
2023-04-22T20:50:17.635Z,52.29
2023-04-22T20:52:47.590Z,52.17
2023-04-22T20:55:17.030Z,52.23
2023-04-22T20:57:45.446Z,51.88
2023-04-22T21:00:14.222Z,52.17
2023-04-22T21:02:43.273Z,52.09
2023-04-22T21:05:12.254Z,51.72
2023-04-22T21:07:41.594Z,51.90
2023-04-22T21:10:10.729Z,51.73
2023-04-22T21:12:39.573Z,51.70
2023-04-22T21:15:08.336Z,51.68
2023-04-22T21:17:36.639Z,51.34
2023-04-22T21:20:06.377Z,51.41
2023-04-22T21:22:34.789Z,51.55
2023-04-22T21:25:02.930Z,51.68
2023-04-22T21:27:31.713Z,51.94
2023-04-22T21:29:59.789Z,52.47
2023-04-22T21:32:29.562Z,52.77
2023-04-22T21:34:57.752Z,52.85
2023-04-22T21:37:26.154Z,52.69
2023-04-22T21:39:54.737Z,52.47
2023-04-22T21:42:22.943Z,52.29
2023-04-22T21:44:51.396Z,52.35
2023-04-22T21:47:19.458Z,52.16
2023-04-22T21:49:47.668Z,51.74
2023-04-22T21:52:16.415Z,51.49
2023-04-22T21:54:44.683Z,51.35
2023-04-22T21:57:13.318Z,51.32
2023-04-22T21:59:41.640Z,51.17
2023-04-22T22:02:09.732Z,51.07
2023-04-22T22:04:39.017Z,51.12
2023-04-22T22:07:07.825Z,51.02
2023-04-22T22:09:36.500Z,50.91
2023-04-22T22:12:04.834Z,50.87
2023-04-22T22:14:33.992Z,50.74
2023-04-22T22:17:02.257Z,51.30
2023-04-22T22:19:31.987Z,51.44
2023-04-22T22:22:00.069Z,51.66
2023-04-22T22:24:28.272Z,52.29
2023-04-22T22:26:58.022Z,52.78
2023-04-22T22:29:26.196Z,53.64
2023-04-22T22:31:54.389Z,53.78
2023-04-22T22:34:22.530Z,53.95
2023-04-22T22:36:50.719Z,53.77
2023-04-22T22:39:18.820Z,53.33
2023-04-22T22:41:47.472Z,53.62
2023-04-22T22:44:15.728Z,53.55
2023-04-22T22:46:43.827Z,53.93
2023-04-22T22:49:12.106Z,53.89
2023-04-22T22:51:40.690Z,54.27
2023-04-22T22:54:09.073Z,54.74
2023-04-22T22:56:37.251Z,54.47
2023-04-22T22:59:05.353Z,53.50
2023-04-22T23:01:33.492Z,53.21
2023-04-22T23:04:01.845Z,54.08
2023-04-22T23:06:32.085Z,54.74
2023-04-22T23:09:00.380Z,55.71
2023-04-22T23:11:28.661Z,56.01
2023-04-22T23:13:57.926Z,55.84
2023-04-22T23:16:27.274Z,56.23
2023-04-22T23:18:55.410Z,57.06
2023-04-22T23:21:23.719Z,57.19
2023-04-22T23:23:51.899Z,57.28
2023-04-22T23:26:20.570Z,57.65
2023-04-22T23:28:49.240Z,57.82
2023-04-22T23:31:17.372Z,58.21
2023-04-22T23:33:45.691Z,58.38
2023-04-22T23:36:13.805Z,58.83
2023-04-22T23:38:42.010Z,59.02
2023-04-22T23:41:10.323Z,58.97
2023-04-22T23:43:38.490Z,59.13
2023-04-22T23:46:06.842Z,58.98
2023-04-22T23:48:34.910Z,59.37
2023-04-22T23:51:03.264Z,59.73
2023-04-22T23:53:31.458Z,59.88
2023-04-22T23:56:00.060Z,60.00
2023-04-22T23:58:28.741Z,60.41
